Terminal Aerodrome Forecast
Issued by NWS

Home | Current Version | Previous Version | Text Only | Print | Product List | Glossary Off
Versions: 1 2 3 4 5 6 7 8 9 10 11 12 13 14 15 16 17 18 19 20 21 22 23 24 25

000
FTUS43 KBIS 220327 AAB
TAFJMS
TAF AMD
KJMS 220327Z 2203/2224 28005KT P6SM VCSH BKN090
     FM220700 24004KT P6SM BKN080
     FM221000 35006KT 1 1/2SM BR BKN035
     FM221300 35007KT 1/2SM FG VCSH OVC005
     FM221500 35009KT 2SM BR VCSH OVC006
     FM221800 36013KT 1 1/2SM -RA BR OVC007
     FM222000 36016G24KT P6SM VCSH OVC005=

USA.gov is the U.S. government's official web portal to all federal, state and local government web resources and services.